sensor_id;sensor_type;location;lat;lon;timestamp;pressure;altitude;pressure_sealevel;temperature;humidity
15674;BME280;7937;48.090;16.212;2023-04-28T00:00:07;98087.88;;;2.61;80.34
15674;BME280;7937;48.090;16.212;2023-04-28T00:03:09;98092.13;;;2.62;80.21
15674;BME280;7937;48.090;16.212;2023-04-28T00:06:12;98089.94;;;2.66;80.31
15674;BME280;7937;48.090;16.212;2023-04-28T00:09:14;98083.97;;;2.72;80.06
15674;BME280;7937;48.090;16.212;2023-04-28T00:12:16;98080.06;;;2.68;80.63
15674;BME280;7937;48.090;16.212;2023-04-28T00:15:18;98080.69;;;2.70;80.60
15674;BME280;7937;48.090;16.212;2023-04-28T00:18:20;98074.88;;;2.74;80.33
15674;BME280;7937;48.090;16.212;2023-04-28T00:21:23;98075.34;;;2.78;80.16
15674;BME280;7937;48.090;16.212;2023-04-28T00:24:25;98068.63;;;2.75;80.37
15674;BME280;7937;48.090;16.212;2023-04-28T00:27:27;98076.97;;;2.79;80.24
15674;BME280;7937;48.090;16.212;2023-04-28T00:30:29;98074.88;;;2.74;80.68
15674;BME280;7937;48.090;16.212;2023-04-28T00:33:31;98073.72;;;2.77;80.48
15674;BME280;7937;48.090;16.212;2023-04-28T00:36:33;98075.16;;;2.79;80.42
15674;BME280;7937;48.090;16.212;2023-04-28T00:39:36;98073.88;;;2.75;81.17
15674;BME280;7937;48.090;16.212;2023-04-28T00:42:38;98059.56;;;2.78;80.80
15674;BME280;7937;48.090;16.212;2023-04-28T00:45:40;98059.09;;;2.89;80.25
15674;BME280;7937;48.090;16.212;2023-04-28T00:48:42;98064.53;;;2.88;80.47
15674;BME280;7937;48.090;16.212;2023-04-28T00:51:45;98056.28;;;2.91;80.58
15674;BME280;7937;48.090;16.212;2023-04-28T00:54:47;98054.09;;;2.94;80.67
15674;BME280;7937;48.090;16.212;2023-04-28T00:57:50;98050.44;;;2.95;80.73
15674;BME280;7937;48.090;16.212;2023-04-28T01:00:52;98053.94;;;2.96;80.78
15674;BME280;7937;48.090;16.212;2023-04-28T01:03:54;98050.38;;;2.89;80.96
15674;BME280;7937;48.090;16.212;2023-04-28T01:06:59;98025.09;;;2.73;80.95
15674;BME280;7937;48.090;16.212;2023-04-28T01:10:02;98054.28;;;2.93;81.19
15674;BME280;7937;48.090;16.212;2023-04-28T01:13:07;98049.03;;;2.93;80.99
15674;BME280;7937;48.090;16.212;2023-04-28T01:16:09;98018.00;;;2.73;81.00
15674;BME280;7937;48.090;16.212;2023-04-28T01:19:19;98029.63;;;2.79;81.35
15674;BME280;7937;48.090;16.212;2023-04-28T01:22:24;98040.84;;;2.88;81.71
15674;BME280;7937;48.090;16.212;2023-04-28T01:25:26;98036.59;;;2.87;81.60
15674;BME280;7937;48.090;16.212;2023-04-28T01:28:28;98035.84;;;2.93;81.22
15674;BME280;7937;48.090;16.212;2023-04-28T01:31:30;98020.16;;;2.84;81.08
15674;BME280;7937;48.090;16.212;2023-04-28T01:34:32;98042.28;;;2.90;81.26
15674;BME280;7937;48.090;16.212;2023-04-28T01:37:34;98040.03;;;2.87;81.46
15674;BME280;7937;48.090;16.212;2023-04-28T01:40:36;98037.22;;;2.89;81.34
15674;BME280;7937;48.090;16.212;2023-04-28T01:43:38;98039.03;;;2.88;81.28
15674;BME280;7937;48.090;16.212;2023-04-28T01:46:40;98031.34;;;2.87;81.33
15674;BME280;7937;48.090;16.212;2023-04-28T01:49:42;98030.25;;;2.81;81.42
15674;BME280;7937;48.090;16.212;2023-04-28T01:52:45;98036.69;;;2.78;81.53
15674;BME280;7937;48.090;16.212;2023-04-28T01:55:47;98029.41;;;2.80;81.72
15674;BME280;7937;48.090;16.212;2023-04-28T01:58:50;98028.44;;;2.81;81.48
15674;BME280;7937;48.090;16.212;2023-04-28T02:01:52;98033.88;;;2.80;81.30
15674;BME280;7937;48.090;16.212;2023-04-28T02:04:55;98036.44;;;2.73;81.83
15674;BME280;7937;48.090;16.212;2023-04-28T02:07:59;98034.53;;;2.67;82.02
15674;BME280;7937;48.090;16.212;2023-04-28T02:11:01;98032.25;;;2.64;81.88
15674;BME280;7937;48.090;16.212;2023-04-28T02:14:04;98028.81;;;2.64;81.86
15674;BME280;7937;48.090;16.212;2023-04-28T02:17:06;98033.06;;;2.65;82.19
15674;BME280;7937;48.090;16.212;2023-04-28T02:20:09;98029.63;;;2.64;82.02
15674;BME280;7937;48.090;16.212;2023-04-28T02:23:12;98030.00;;;2.61;82.09
15674;BME280;7937;48.090;16.212;2023-04-28T02:26:14;98028.75;;;2.57;82.39
15674;BME280;7937;48.090;16.212;2023-04-28T02:29:16;98028.00;;;2.63;82.38
15674;BME280;7937;48.090;16.212;2023-04-28T02:32:18;98018.38;;;2.55;82.27
15674;BME280;7937;48.090;16.212;2023-04-28T02:35:20;98025.28;;;2.56;82.35
15674;BME280;7937;48.090;16.212;2023-04-28T02:38:22;98020.38;;;2.53;82.65
15674;BME280;7937;48.090;16.212;2023-04-28T02:41:24;98021.75;;;2.49;82.59
15674;BME280;7937;48.090;16.212;2023-04-28T02:44:27;98018.50;;;2.47;82.80
15674;BME280;7937;48.090;16.212;2023-04-28T02:47:29;98021.19;;;2.39;82.65
15674;BME280;7937;48.090;16.212;2023-04-28T02:50:31;98011.03;;;2.36;82.93
15674;BME280;7937;48.090;16.212;2023-04-28T02:53:33;98019.47;;;2.31;82.80
15674;BME280;7937;48.090;16.212;2023-04-28T02:56:35;98024.28;;;2.28;83.55
15674;BME280;7937;48.090;16.212;2023-04-28T02:59:38;98019.66;;;2.30;82.97
15674;BME280;7937;48.090;16.212;2023-04-28T03:02:40;98011.69;;;2.23;83.44
15674;BME280;7937;48.090;16.212;2023-04-28T03:05:42;98012.84;;;2.21;83.38
15674;BME280;7937;48.090;16.212;2023-04-28T03:08:44;97984.94;;;2.05;83.49
15674;BME280;7937;48.090;16.212;2023-04-28T03:11:46;97997.34;;;2.26;83.35
15674;BME280;7937;48.090;16.212;2023-04-28T03:14:48;97990.94;;;2.28;83.53
15674;BME280;7937;48.090;16.212;2023-04-28T03:17:51;97985.69;;;2.28;83.02
15674;BME280;7937;48.090;16.212;2023-04-28T03:20:53;97991.47;;;2.24;83.31
15674;BME280;7937;48.090;16.212;2023-04-28T03:23:55;97988.75;;;2.17;83.39
15674;BME280;7937;48.090;16.212;2023-04-28T03:26:57;97986.22;;;2.09;83.36
15674;BME280;7937;48.090;16.212;2023-04-28T03:29:59;97982.78;;;2.09;83.61
15674;BME280;7937;48.090;16.212;2023-04-28T03:33:01;97979.88;;;2.03;83.76
15674;BME280;7937;48.090;16.212;2023-04-28T03:36:03;97985.84;;;1.97;84.28
15674;BME280;7937;48.090;16.212;2023-04-28T03:39:06;97988.81;;;1.94;84.54
15674;BME280;7937;48.090;16.212;2023-04-28T03:42:08;97981.28;;;1.91;84.46
15674;BME280;7937;48.090;16.212;2023-04-28T03:45:10;97985.72;;;1.91;84.60
15674;BME280;7937;48.090;16.212;2023-04-28T03:48:12;97992.78;;;1.90;84.72
15674;BME280;7937;48.090;16.212;2023-04-28T03:51:14;97997.25;;;1.90;84.72
15674;BME280;7937;48.090;16.212;2023-04-28T03:54:17;98001.88;;;1.88;84.46
15674;BME280;7937;48.090;16.212;2023-04-28T03:57:19;97988.72;;;1.88;84.67
15674;BME280;7937;48.090;16.212;2023-04-28T04:00:21;97989.34;;;1.90;84.83
15674;BME280;7937;48.090;16.212;2023-04-28T04:03:26;97993.97;;;1.88;84.67
15674;BME280;7937;48.090;16.212;2023-04-28T04:06:30;97989.06;;;1.85;85.16
15674;BME280;7937;48.090;16.212;2023-04-28T04:09:33;97998.25;;;1.89;85.26
15674;BME280;7937;48.090;16.212;2023-04-28T04:12:35;97985.72;;;1.91;85.51
15674;BME280;7937;48.090;16.212;2023-04-28T04:15:37;97985.38;;;1.94;85.37
15674;BME280;7937;48.090;16.212;2023-04-28T04:18:39;97988.28;;;1.99;85.68
15674;BME280;7937;48.090;16.212;2023-04-28T04:22:02;97952.50;;;1.83;85.64
15674;BME280;7937;48.090;16.212;2023-04-28T04:25:04;97984.03;;;2.13;85.75
15674;BME280;7937;48.090;16.212;2023-04-28T04:28:08;97992.00;;;2.19;85.65
15674;BME280;7937;48.090;16.212;2023-04-28T04:31:10;97998.16;;;2.26;85.39
15674;BME280;7937;48.090;16.212;2023-04-28T04:34:13;97987.31;;;2.29;85.39
15674;BME280;7937;48.090;16.212;2023-04-28T04:37:15;97986.03;;;2.40;85.46
15674;BME280;7937;48.090;16.212;2023-04-28T04:40:25;97974.16;;;2.44;85.25
15674;BME280;7937;48.090;16.212;2023-04-28T04:43:28;97970.97;;;2.49;85.23
15674;BME280;7937;48.090;16.212;2023-04-28T04:46:30;97969.88;;;2.58;84.86
15674;BME280;7937;48.090;16.212;2023-04-28T04:49:33;97955.97;;;2.64;84.82
15674;BME280;7937;48.090;16.212;2023-04-28T04:52:36;97959.34;;;2.73;84.86
15674;BME280;7937;48.090;16.212;2023-04-28T04:55:38;97947.19;;;2.72;84.90
15674;BME280;7937;48.090;16.212;2023-04-28T04:58:42;97963.34;;;2.90;84.60
15674;BME280;7937;48.090;16.212;2023-04-28T05:02:07;97905.19;;;2.64;84.70
15674;BME280;7937;48.090;16.212;2023-04-28T05:05:10;97965.78;;;3.06;84.38
15674;BME280;7937;48.090;16.212;2023-04-28T05:08:27;97960.22;;;3.16;83.99
15674;BME280;7937;48.090;16.212;2023-04-28T05:11:31;97950.44;;;3.31;83.48
15674;BME280;7937;48.090;16.212;2023-04-28T05:14:33;97952.75;;;3.41;83.38
15674;BME280;7937;48.090;16.212;2023-04-28T05:17:35;97920.41;;;3.26;83.45
15674;BME280;7937;48.090;16.212;2023-04-28T05:20:37;97947.41;;;3.56;82.73
15674;BME280;7937;48.090;16.212;2023-04-28T05:23:39;97949.75;;;3.72;82.58
15674;BME280;7937;48.090;16.212;2023-04-28T05:26:42;97952.66;;;3.84;81.78
15674;BME280;7937;48.090;16.212;2023-04-28T05:29:44;97953.16;;;3.94;81.00
15674;BME280;7937;48.090;16.212;2023-04-28T05:32:47;97951.84;;;4.11;81.33
15674;BME280;7937;48.090;16.212;2023-04-28T05:35:49;97943.56;;;4.21;80.27
15674;BME280;7937;48.090;16.212;2023-04-28T05:38:51;97945.06;;;4.37;80.28
15674;BME280;7937;48.090;16.212;2023-04-28T05:41:53;97953.47;;;4.54;80.19
15674;BME280;7937;48.090;16.212;2023-04-28T05:44:55;97952.72;;;4.66;79.89
15674;BME280;7937;48.090;16.212;2023-04-28T05:47:58;97949.91;;;4.81;80.02
15674;BME280;7937;48.090;16.212;2023-04-28T05:51:01;97950.41;;;4.98;80.05
15674;BME280;7937;48.090;16.212;2023-04-28T05:54:03;97956.09;;;5.15;80.20
15674;BME280;7937;48.090;16.212;2023-04-28T05:57:10;97959.59;;;5.35;80.11
15674;BME280;7937;48.090;16.212;2023-04-28T06:00:13;97948.22;;;5.55;79.32
15674;BME280;7937;48.090;16.212;2023-04-28T06:03:15;97950.88;;;5.68;79.29
15674;BME280;7937;48.090;16.212;2023-04-28T06:06:20;97950.88;;;5.81;78.15
15674;BME280;7937;48.090;16.212;2023-04-28T06:09:23;97957.78;;;5.95;78.34
15674;BME280;7937;48.090;16.212;2023-04-28T06:12:26;97950.66;;;6.09;78.09
15674;BME280;7937;48.090;16.212;2023-04-28T06:15:29;97951.03;;;6.19;77.80
15674;BME280;7937;48.090;16.212;2023-04-28T06:18:31;97932.56;;;6.13;77.49
15674;BME280;7937;48.090;16.212;2023-04-28T06:21:34;97941.81;;;6.49;77.18
15674;BME280;7937;48.090;16.212;2023-04-28T06:24:37;97942.75;;;6.67;76.65
15674;BME280;7937;48.090;16.212;2023-04-28T06:27:45;97937.59;;;6.86;76.00
15674;BME280;7937;48.090;16.212;2023-04-28T06:30:47;97934.66;;;7.01;75.43
15674;BME280;7937;48.090;16.212;2023-04-28T06:33:49;97936.56;;;7.18;75.00
15674;BME280;7937;48.090;16.212;2023-04-28T06:36:52;97934.00;;;7.37;75.39
15674;BME280;7937;48.090;16.212;2023-04-28T06:39:54;97939.16;;;7.57;74.12
15674;BME280;7937;48.090;16.212;2023-04-28T06:42:58;97928.78;;;7.80;72.96
15674;BME280;7937;48.090;16.212;2023-04-28T06:46:14;97930.22;;;8.01;72.04
15674;BME280;7937;48.090;16.212;2023-04-28T06:49:16;97927.19;;;8.41;72.61
15674;BME280;7937;48.090;16.212;2023-04-28T06:52:18;97929.84;;;8.89;70.73
15674;BME280;7937;48.090;16.212;2023-04-28T06:55:34;97917.63;;;9.30;69.09
15674;BME280;7937;48.090;16.212;2023-04-28T06:58:36;97910.63;;;9.47;66.39
15674;BME280;7937;48.090;16.212;2023-04-28T07:01:38;97907.88;;;9.77;67.00
15674;BME280;7937;48.090;16.212;2023-04-28T07:04:40;97908.78;;;10.18;64.08
15674;BME280;7937;48.090;16.212;2023-04-28T07:07:44;97911.00;;;10.45;61.68
15674;BME280;7937;48.090;16.212;2023-04-28T07:10:46;97907.81;;;10.59;62.40
15674;BME280;7937;48.090;16.212;2023-04-28T07:13:48;97900.88;;;10.87;56.03
15674;BME280;7937;48.090;16.212;2023-04-28T07:16:52;97890.75;;;11.18;57.78
15674;BME280;7937;48.090;16.212;2023-04-28T07:19:54;97893.88;;;11.43;54.57
15674;BME280;7937;48.090;16.212;2023-04-28T07:22:56;97888.47;;;11.55;53.88
15674;BME280;7937;48.090;16.212;2023-04-28T07:25:58;97886.91;;;11.76;55.04
15674;BME280;7937;48.090;16.212;2023-04-28T07:29:00;97886.13;;;11.92;54.79
15674;BME280;7937;48.090;16.212;2023-04-28T07:32:02;97889.97;;;12.01;51.45
15674;BME280;7937;48.090;16.212;2023-04-28T07:35:08;97888.78;;;12.31;49.68
15674;BME280;7937;48.090;16.212;2023-04-28T07:38:10;97884.13;;;12.65;50.81
15674;BME280;7937;48.090;16.212;2023-04-28T07:41:13;97886.84;;;12.92;48.18
15674;BME280;7937;48.090;16.212;2023-04-28T07:44:15;97892.34;;;13.07;47.24
15674;BME280;7937;48.090;16.212;2023-04-28T07:47:17;97881.91;;;13.06;47.55
15674;BME280;7937;48.090;16.212;2023-04-28T07:50:19;97890.63;;;12.96;48.13
15674;BME280;7937;48.090;16.212;2023-04-28T07:53:21;97895.38;;;13.16;47.88
15674;BME280;7937;48.090;16.212;2023-04-28T07:56:23;97898.78;;;13.38;47.32
15674;BME280;7937;48.090;16.212;2023-04-28T07:59:26;97905.91;;;13.55;45.31
15674;BME280;7937;48.090;16.212;2023-04-28T08:02:28;97892.16;;;13.41;47.26
15674;BME280;7937;48.090;16.212;2023-04-28T08:05:30;97894.88;;;13.46;46.29
15674;BME280;7937;48.090;16.212;2023-04-28T08:08:33;97896.44;;;13.42;46.75
15674;BME280;7937;48.090;16.212;2023-04-28T08:11:35;97885.19;;;13.40;45.58
15674;BME280;7937;48.090;16.212;2023-04-28T08:14:37;97889.03;;;13.22;47.04
15674;BME280;7937;48.090;16.212;2023-04-28T08:17:39;97889.84;;;13.23;46.63
15674;BME280;7937;48.090;16.212;2023-04-28T08:20:41;97889.03;;;13.22;47.04
15674;BME280;7937;48.090;16.212;2023-04-28T08:23:44;97887.19;;;13.28;47.85
15674;BME280;7937;48.090;16.212;2023-04-28T08:26:47;97865.88;;;13.38;48.60
15674;BME280;7937;48.090;16.212;2023-04-28T08:29:49;97880.59;;;13.73;46.76
15674;BME280;7937;48.090;16.212;2023-04-28T08:32:51;97880.63;;;13.78;46.58
15674;BME280;7937;48.090;16.212;2023-04-28T08:35:54;97863.81;;;13.82;46.09
15674;BME280;7937;48.090;16.212;2023-04-28T08:38:56;97855.03;;;13.92;49.10
15674;BME280;7937;48.090;16.212;2023-04-28T08:42:03;97864.72;;;14.03;44.59
15674;BME280;7937;48.090;16.212;2023-04-28T08:45:05;97863.25;;;13.80;44.86
15674;BME280;7937;48.090;16.212;2023-04-28T08:48:26;97865.16;;;13.85;45.72
15674;BME280;7937;48.090;16.212;2023-04-28T08:51:33;97859.63;;;14.02;45.10
15674;BME280;7937;48.090;16.212;2023-04-28T08:54:39;97843.28;;;13.98;45.49
15674;BME280;7937;48.090;16.212;2023-04-28T08:57:44;97851.53;;;14.39;43.60
15674;BME280;7937;48.090;16.212;2023-04-28T09:00:46;97837.78;;;14.25;44.22
15674;BME280;7937;48.090;16.212;2023-04-28T09:03:48;97843.69;;;14.27;47.11
15674;BME280;7937;48.090;16.212;2023-04-28T09:06:51;97843.03;;;14.57;43.99
15674;BME280;7937;48.090;16.212;2023-04-28T09:10:23;97836.34;;;14.65;44.60
15674;BME280;7937;48.090;16.212;2023-04-28T09:13:25;97832.41;;;14.93;45.93
15674;BME280;7937;48.090;16.212;2023-04-28T09:16:38;97832.97;;;15.36;44.88
15674;BME280;7937;48.090;16.212;2023-04-28T09:19:42;97824.63;;;15.07;43.11
15674;BME280;7937;48.090;16.212;2023-04-28T09:22:44;97828.38;;;15.41;43.25
15674;BME280;7937;48.090;16.212;2023-04-28T09:25:56;97816.31;;;15.54;42.50
15674;BME280;7937;48.090;16.212;2023-04-28T09:29:11;97813.88;;;15.83;42.56
15674;BME280;7937;48.090;16.212;2023-04-28T09:32:18;97813.84;;;15.93;42.21
15674;BME280;7937;48.090;16.212;2023-04-28T09:35:38;97809.22;;;16.09;41.66
15674;BME280;7937;48.090;16.212;2023-04-28T09:38:43;97796.38;;;16.06;41.50
15674;BME280;7937;48.090;16.212;2023-04-28T09:41:46;97788.59;;;15.89;42.06
15674;BME280;7937;48.090;16.212;2023-04-28T09:44:54;97785.53;;;16.27;43.60
15674;BME280;7937;48.090;16.212;2023-04-28T09:48:08;97757.69;;;16.51;40.34
15674;BME280;7937;48.090;16.212;2023-04-28T09:51:19;97750.44;;;16.52;40.46
15674;BME280;7937;48.090;16.212;2023-04-28T09:54:22;97750.84;;;16.69;40.15
15674;BME280;7937;48.090;16.212;2023-04-28T09:57:30;97747.84;;;16.81;39.73
15674;BME280;7937;48.090;16.212;2023-04-28T10:00:37;97737.03;;;16.47;40.97
15674;BME280;7937;48.090;16.212;2023-04-28T10:03:40;97732.72;;;16.46;41.15
15674;BME280;7937;48.090;16.212;2023-04-28T10:06:42;97728.00;;;16.67;40.73
15674;BME280;7937;48.090;16.212;2023-04-28T10:09:46;97730.16;;;16.65;40.31
15674;BME280;7937;48.090;16.212;2023-04-28T10:12:51;97724.22;;;16.73;40.34
15674;BME280;7937;48.090;16.212;2023-04-28T10:15:53;97721.38;;;16.54;40.93
15674;BME280;7937;48.090;16.212;2023-04-28T10:18:56;97730.16;;;16.65;40.61
15674;BME280;7937;48.090;16.212;2023-04-28T10:25:32;97715.47;;;16.91;40.56
15674;BME280;7937;48.090;16.212;2023-04-28T10:28:36;97714.63;;;16.96;40.02
15674;BME280;7937;48.090;16.212;2023-04-28T10:38:30;97707.22;;;17.12;41.20
15674;BME280;7937;48.090;16.212;2023-04-28T10:41:32;97703.31;;;17.28;41.41
15674;BME280;7937;48.090;16.212;2023-04-28T10:47:59;97694.16;;;17.53;40.38
15674;BME280;7937;48.090;16.212;2023-04-28T10:54:16;97700.34;;;17.30;40.02
15674;BME280;7937;48.090;16.212;2023-04-28T10:57:20;97692.63;;;17.18;41.00
15674;BME280;7937;48.090;16.212;2023-04-28T11:00:28;97697.06;;;17.03;41.12
15674;BME280;7937;48.090;16.212;2023-04-28T11:07:08;97691.03;;;16.88;41.80
15674;BME280;7937;48.090;16.212;2023-04-28T11:10:10;97684.59;;;16.84;42.51
15674;BME280;7937;48.090;16.212;2023-04-28T11:13:28;97679.84;;;16.70;43.27
15674;BME280;7937;48.090;16.212;2023-04-28T11:16:49;97678.22;;;16.69;42.58
15674;BME280;7937;48.090;16.212;2023-04-28T11:19:53;97641.19;;;16.61;41.86
15674;BME280;7937;48.090;16.212;2023-04-28T11:22:58;97663.91;;;16.79;42.68
15674;BME280;7937;48.090;16.212;2023-04-28T11:26:00;97659.34;;;17.09;40.52
15674;BME280;7937;48.090;16.212;2023-04-28T11:29:02;97650.47;;;17.08;42.05
15674;BME280;7937;48.090;16.212;2023-04-28T11:32:06;97654.94;;;17.18;42.94
15674;BME280;7937;48.090;16.212;2023-04-28T11:35:09;97642.66;;;17.36;40.29
15674;BME280;7937;48.090;16.212;2023-04-28T11:38:11;97649.00;;;17.69;40.44
15674;BME280;7937;48.090;16.212;2023-04-28T11:41:13;97618.81;;;17.91;39.55
15674;BME280;7937;48.090;16.212;2023-04-28T11:44:18;97632.78;;;17.93;40.04
15674;BME280;7937;48.090;16.212;2023-04-28T11:47:30;97632.00;;;17.92;38.80
15674;BME280;7937;48.090;16.212;2023-04-28T11:50:36;97628.00;;;17.66;39.65
15674;BME280;7937;48.090;16.212;2023-04-28T11:53:44;97625.94;;;17.58;40.20
15674;BME280;7937;48.090;16.212;2023-04-28T11:56:47;97628.13;;;17.56;40.12
15674;BME280;7937;48.090;16.212;2023-04-28T11:59:49;97629.97;;;17.60;41.03
15674;BME280;7937;48.090;16.212;2023-04-28T12:02:52;97632.00;;;17.68;39.36
15674;BME280;7937;48.090;16.212;2023-04-28T12:05:54;97625.16;;;17.57;39.21
15674;BME280;7937;48.090;16.212;2023-04-28T12:08:56;97631.94;;;17.54;40.36
15674;BME280;7937;48.090;16.212;2023-04-28T12:12:05;97635.13;;;17.57;40.30
15674;BME280;7937;48.090;16.212;2023-04-28T12:15:07;97640.56;;;17.51;40.96
15674;BME280;7937;48.090;16.212;2023-04-28T12:18:10;97645.22;;;17.22;39.49
15674;BME280;7937;48.090;16.212;2023-04-28T12:21:20;97644.63;;;16.72;41.53
15674;BME280;7937;48.090;16.212;2023-04-28T12:24:22;97655.34;;;16.38;42.83
15674;BME280;7937;48.090;16.212;2023-04-28T12:27:26;97655.28;;;16.43;42.95
15674;BME280;7937;48.090;16.212;2023-04-28T12:30:31;97656.97;;;16.34;43.65
15674;BME280;7937;48.090;16.212;2023-04-28T12:33:34;97664.75;;;16.40;42.97
15674;BME280;7937;48.090;16.212;2023-04-28T12:36:39;97672.03;;;16.30;42.99
15674;BME280;7937;48.090;16.212;2023-04-28T12:39:41;97640.50;;;16.06;43.22
15674;BME280;7937;48.090;16.212;2023-04-28T12:42:43;97660.81;;;16.22;43.30
15674;BME280;7937;48.090;16.212;2023-04-28T12:45:46;97656.75;;;16.25;43.37
15674;BME280;7937;48.090;16.212;2023-04-28T12:48:48;97657.50;;;16.36;42.69
15674;BME280;7937;48.090;16.212;2023-04-28T12:51:50;97660.59;;;16.14;43.74
15674;BME280;7937;48.090;16.212;2023-04-28T12:54:52;97654.97;;;16.10;43.12
15674;BME280;7937;48.090;16.212;2023-04-28T12:57:54;97657.28;;;15.83;42.72
15674;BME280;7937;48.090;16.212;2023-04-28T13:00:56;97655.75;;;15.46;44.64
15674;BME280;7937;48.090;16.212;2023-04-28T13:03:58;97659.53;;;15.45;44.68
15674;BME280;7937;48.090;16.212;2023-04-28T13:07:01;97650.69;;;15.44;45.05
15674;BME280;7937;48.090;16.212;2023-04-28T13:10:03;97652.88;;;15.32;44.51
15674;BME280;7937;48.090;16.212;2023-04-28T13:13:06;97651.78;;;15.38;44.01
15674;BME280;7937;48.090;16.212;2023-04-28T13:16:08;97646.69;;;15.21;45.12
15674;BME280;7937;48.090;16.212;2023-04-28T13:19:10;97652.63;;;15.23;45.89
15674;BME280;7937;48.090;16.212;2023-04-28T13:22:14;97640.31;;;15.17;46.20
15674;BME280;7937;48.090;16.212;2023-04-28T13:25:16;97649.13;;;15.28;46.06
15674;BME280;7937;48.090;16.212;2023-04-28T13:28:18;97652.63;;;15.18;45.85
15674;BME280;7937;48.090;16.212;2023-04-28T13:31:20;97628.53;;;15.03;45.11
15674;BME280;7937;48.090;16.212;2023-04-28T13:34:22;97648.34;;;15.02;45.75
15674;BME280;7937;48.090;16.212;2023-04-28T13:37:25;97642.78;;;14.83;46.40
15674;BME280;7937;48.090;16.212;2023-04-28T13:40:27;97643.03;;;14.71;47.16
15674;BME280;7937;48.090;16.212;2023-04-28T13:43:29;97649.47;;;14.76;48.30
15674;BME280;7937;48.090;16.212;2023-04-28T13:46:32;97625.06;;;14.57;49.25
15674;BME280;7937;48.090;16.212;2023-04-28T13:49:34;97635.53;;;14.68;49.10
15674;BME280;7937;48.090;16.212;2023-04-28T13:52:38;97641.69;;;14.74;49.60
15674;BME280;7937;48.090;16.212;2023-04-28T13:55:40;97635.28;;;14.60;48.96
15674;BME280;7937;48.090;16.212;2023-04-28T13:58:42;97638.97;;;14.33;50.97
15674;BME280;7937;48.090;16.212;2023-04-28T14:01:44;97632.81;;;14.33;49.84
15674;BME280;7937;48.090;16.212;2023-04-28T14:04:46;97628.22;;;14.23;50.26
15674;BME280;7937;48.090;16.212;2023-04-28T14:07:55;97625.56;;;14.23;51.83
15674;BME280;7937;48.090;16.212;2023-04-28T14:10:57;97638.16;;;14.23;54.17
15674;BME280;7937;48.090;16.212;2023-04-28T14:13:59;97630.91;;;14.18;53.13
15674;BME280;7937;48.090;16.212;2023-04-28T14:17:02;97622.34;;;14.21;54.17
15674;BME280;7937;48.090;16.212;2023-04-28T14:20:05;97625.03;;;14.26;54.63
15674;BME280;7937;48.090;16.212;2023-04-28T14:23:08;97624.75;;;14.23;55.31
15674;BME280;7937;48.090;16.212;2023-04-28T14:26:10;97625.31;;;14.25;55.94
15674;BME280;7937;48.090;16.212;2023-04-28T14:29:12;97627.19;;;14.24;51.84
15674;BME280;7937;48.090;16.212;2023-04-28T14:32:14;97631.19;;;14.22;53.10
15674;BME280;7937;48.090;16.212;2023-04-28T14:35:22;97632.78;;;14.23;54.07
15674;BME280;7937;48.090;16.212;2023-04-28T14:38:24;97627.19;;;14.24;53.62
15674;BME280;7937;48.090;16.212;2023-04-28T14:41:26;97623.72;;;14.24;54.43
15674;BME280;7937;48.090;16.212;2023-04-28T14:44:28;97636.53;;;14.22;54.85
15674;BME280;7937;48.090;16.212;2023-04-28T14:47:30;97625.56;;;14.18;55.43
15674;BME280;7937;48.090;16.212;2023-04-28T14:50:32;97621.00;;;14.13;56.59
15674;BME280;7937;48.090;16.212;2023-04-28T14:53:35;97609.75;;;14.11;57.73
15674;BME280;7937;48.090;16.212;2023-04-28T14:56:37;97611.91;;;14.04;58.44
15674;BME280;7937;48.090;16.212;2023-04-28T14:59:39;97605.44;;;13.95;58.75
15674;BME280;7937;48.090;16.212;2023-04-28T15:02:42;97608.13;;;13.90;59.46
15674;BME280;7937;48.090;16.212;2023-04-28T15:05:45;97594.72;;;13.85;60.79
15674;BME280;7937;48.090;16.212;2023-04-28T15:08:47;97584.25;;;13.78;61.77
15674;BME280;7937;48.090;16.212;2023-04-28T15:11:50;97568.72;;;13.70;62.75
15674;BME280;7937;48.090;16.212;2023-04-28T15:14:52;97540.31;;;13.64;63.92
15674;BME280;7937;48.090;16.212;2023-04-28T15:17:55;97545.66;;;13.59;64.65
15674;BME280;7937;48.090;16.212;2023-04-28T15:21:01;97584.13;;;13.42;67.17
15674;BME280;7937;48.090;16.212;2023-04-28T15:24:04;97601.78;;;13.38;67.39
15674;BME280;7937;48.090;16.212;2023-04-28T15:27:07;97614.84;;;13.30;67.10
15674;BME280;7937;48.090;16.212;2023-04-28T15:30:09;97612.09;;;13.20;67.11
15674;BME280;7937;48.090;16.212;2023-04-28T15:33:11;97600.84;;;13.12;67.89
15674;BME280;7937;48.090;16.212;2023-04-28T15:36:18;97602.94;;;13.05;68.61
15674;BME280;7937;48.090;16.212;2023-04-28T15:39:21;97600.78;;;13.02;68.49
15674;BME280;7937;48.090;16.212;2023-04-28T15:42:24;97598.09;;;12.97;68.59
15674;BME280;7937;48.090;16.212;2023-04-28T15:45:26;97592.72;;;12.92;68.21
15674;BME280;7937;48.090;16.212;2023-04-28T15:48:29;97583.06;;;12.86;68.40
15674;BME280;7937;48.090;16.212;2023-04-28T15:51:31;97584.09;;;12.85;68.95
15674;BME280;7937;48.090;16.212;2023-04-28T15:54:34;97566.41;;;12.74;68.87
15674;BME280;7937;48.090;16.212;2023-04-28T15:57:36;97576.06;;;12.85;69.48
15674;BME280;7937;48.090;16.212;2023-04-28T16:00:38;97582.50;;;12.84;70.62
15674;BME280;7937;48.090;16.212;2023-04-28T16:03:42;97582.16;;;12.75;71.05
15674;BME280;7937;48.090;16.212;2023-04-28T16:06:49;97585.28;;;12.57;72.70
15674;BME280;7937;48.090;16.212;2023-04-28T16:09:53;97586.72;;;12.37;73.38
15674;BME280;7937;48.090;16.212;2023-04-28T16:12:55;97596.50;;;12.22;74.89
15674;BME280;7937;48.090;16.212;2023-04-28T16:15:58;97594.53;;;12.12;75.12
15674;BME280;7937;48.090;16.212;2023-04-28T16:19:00;97594.50;;;12.07;75.44
15674;BME280;7937;48.090;16.212;2023-04-28T16:22:02;97597.56;;;11.94;76.82
15674;BME280;7937;48.090;16.212;2023-04-28T16:25:05;97594.56;;;11.90;78.35
15674;BME280;7937;48.090;16.212;2023-04-28T16:28:07;97580.84;;;11.81;78.31
15674;BME280;7937;48.090;16.212;2023-04-28T16:31:10;97558.97;;;11.57;78.20
15674;BME280;7937;48.090;16.212;2023-04-28T16:34:12;97583.06;;;11.62;78.60
15674;BME280;7937;48.090;16.212;2023-04-28T16:37:14;97542.66;;;11.27;78.78